createdAt,value
2023-01-09T00:08:25.053Z,98512.47
2023-01-09T00:18:28.760Z,98489.72
2023-01-09T00:28:34.553Z,98482.78
2023-01-09T00:38:38.700Z,98481.16
2023-01-09T00:48:46.888Z,98476.34
2023-01-09T00:58:51.089Z,98470.19
2023-01-09T01:08:57.082Z,98461.75
2023-01-09T01:19:00.730Z,98446.41
2023-01-09T01:29:05.683Z,98438.75
2023-01-09T01:39:09.347Z,98437.31
2023-01-09T01:49:20.314Z,98429.66
2023-01-09T01:59:27.691Z,98438.19
2023-01-09T02:09:32.825Z,98446.13
2023-01-09T02:20:21.546Z,98466.56
2023-01-09T02:30:38.324Z,98482.00
2023-01-09T02:40:51.535Z,98474.50
2023-01-09T02:51:11.928Z,98477.75
2023-01-09T03:01:28.325Z,98484.06
2023-01-09T03:11:41.487Z,98486.34
2023-01-09T03:21:45.987Z,98506.41
2023-01-09T03:31:51.720Z,98537.78
2023-01-09T03:41:55.488Z,98538.22
2023-01-09T03:52:00.429Z,98549.47
2023-01-09T04:02:04.359Z,98557.66
2023-01-09T04:12:09.668Z,98542.00
2023-01-09T04:22:13.309Z,98587.78
2023-01-09T04:32:18.294Z,98613.22
2023-01-09T04:42:21.921Z,98629.56
2023-01-09T04:52:27.422Z,98646.13
2023-01-09T05:02:31.058Z,98665.19
2023-01-09T05:12:36.386Z,98687.28
2023-01-09T05:22:40.210Z,98716.16
2023-01-09T05:32:45.554Z,98708.31
2023-01-09T05:42:49.208Z,98716.34
2023-01-09T05:53:00.309Z,98752.22
2023-01-09T06:03:04.176Z,98765.19
2023-01-09T06:13:09.249Z,98793.59
2023-01-09T06:23:13.764Z,98797.41
2023-01-09T06:33:19.139Z,98811.00
2023-01-09T06:43:22.791Z,98821.75
2023-01-09T06:53:28.254Z,98817.53
2023-01-09T07:03:33.711Z,98814.94
2023-01-09T07:13:38.998Z,98827.69
2023-01-09T07:23:42.676Z,98836.41
2023-01-09T07:33:47.730Z,98844.97
2023-01-09T07:43:51.375Z,98855.69
2023-01-09T07:53:56.571Z,98869.31
2023-01-09T08:04:00.610Z,98868.28
2023-01-09T08:14:05.742Z,98885.53
2023-01-09T08:24:11.049Z,98883.84
2023-01-09T08:34:16.088Z,98879.31
2023-01-09T08:44:37.345Z,98896.16
2023-01-09T08:54:42.365Z,98889.72
2023-01-09T09:04:46.213Z,98893.75
2023-01-09T09:15:09.141Z,98895.88
2023-01-09T09:25:12.890Z,98909.19
2023-01-09T09:35:18.845Z,98905.53
2023-01-09T09:45:36.122Z,98904.13
2023-01-09T09:55:43.259Z,98907.25
2023-01-09T10:05:49.546Z,98907.47
2023-01-09T10:16:05.469Z,98903.91
2023-01-09T10:26:18.164Z,98906.75
2023-01-09T10:36:59.199Z,98884.19
2023-01-09T10:47:05.707Z,98890.97
2023-01-09T10:57:16.653Z,98895.88
2023-01-09T11:07:24.546Z,98903.28
2023-01-09T11:17:30.626Z,98908.84
2023-01-09T11:27:34.359Z,98892.81
2023-01-09T11:37:39.541Z,98901.72
2023-01-09T11:47:44.698Z,98896.44
2023-01-09T11:57:53.056Z,98893.91
2023-01-09T12:08:25.384Z,98879.47
2023-01-09T12:18:56.303Z,98883.50
2023-01-09T12:29:19.294Z,98886.03
2023-01-09T12:39:42.956Z,98901.59
2023-01-09T12:49:55.832Z,98920.84
2023-01-09T13:00:07.685Z,98937.50
2023-01-09T13:10:24.211Z,98946.91
2023-01-09T13:20:38.413Z,98932.75
2023-01-09T13:31:28.668Z,98939.72
2023-01-09T13:41:51.295Z,98937.13
2023-01-09T13:52:04.954Z,98937.47
2023-01-09T14:02:56.421Z,98946.91
2023-01-09T14:13:00.422Z,98959.63
2023-01-09T14:23:31.533Z,98968.28
2023-01-09T14:33:32.901Z,98984.72
2023-01-09T14:44:00.144Z,98990.66
2023-01-09T14:54:15.897Z,99014.94
2023-01-09T15:04:31.675Z,99023.81
2023-01-09T15:14:39.988Z,99067.41
2023-01-09T15:24:44.979Z,99076.63
2023-01-09T15:34:50.307Z,99082.69
2023-01-09T15:44:55.629Z,99108.16
2023-01-09T15:54:59.383Z,99131.59
2023-01-09T16:05:09.446Z,99138.41
2023-01-09T16:15:18.622Z,99145.13
2023-01-09T16:25:31.104Z,99145.75
2023-01-09T16:35:34.934Z,99152.69
2023-01-09T16:45:42.142Z,99178.16
2023-01-09T16:55:47.129Z,99198.91
2023-01-09T17:05:55.113Z,99221.91
2023-01-09T17:16:00.484Z,99242.25
2023-01-09T17:26:23.359Z,99267.41
2023-01-09T17:36:32.518Z,99292.75
2023-01-09T17:46:41.031Z,99317.84
2023-01-09T17:56:48.821Z,99327.19
2023-01-09T18:06:54.575Z,99356.22
2023-01-09T18:16:58.640Z,99370.59
2023-01-09T18:27:03.908Z,99395.25
2023-01-09T18:37:07.700Z,99419.50
2023-01-09T18:47:12.752Z,99433.53
2023-01-09T18:57:17.106Z,99446.66
2023-01-09T19:07:22.217Z,99478.31
2023-01-09T19:17:25.914Z,99484.22
2023-01-09T19:27:31.644Z,99502.09
2023-01-09T19:37:37.176Z,99526.78
2023-01-09T19:47:47.461Z,99530.66
2023-01-09T19:57:51.237Z,99552.66
2023-01-09T20:07:57.451Z,99574.75
2023-01-09T20:18:02.029Z,99583.28
2023-01-09T20:28:07.115Z,99598.63
2023-01-09T20:38:11.326Z,99605.44
2023-01-09T20:48:16.644Z,99632.50
2023-01-09T20:58:20.334Z,99662.34
2023-01-09T21:08:25.503Z,99687.97
2023-01-09T21:18:29.528Z,99694.75
2023-01-09T21:28:41.101Z,99692.56
2023-01-09T21:38:45.768Z,99720.91
2023-01-09T21:48:51.031Z,99741.94
2023-01-09T21:58:54.851Z,99766.03
2023-01-09T22:09:00.939Z,99777.34
2023-01-09T22:19:04.853Z,99796.06
2023-01-09T22:29:09.908Z,99807.63
2023-01-09T22:39:16.940Z,99820.03
2023-01-09T22:49:26.393Z,99846.81
2023-01-09T22:59:32.328Z,99883.16
2023-01-09T23:09:37.498Z,99886.00
2023-01-09T23:19:41.301Z,99890.81
2023-01-09T23:29:46.755Z,99904.78
2023-01-09T23:39:50.449Z,99927.84
2023-01-09T23:49:55.523Z,99926.44
2023-01-09T23:59:59.177Z,99947.75
